createdAt,value
2017-12-16T00:02:00.375Z,29.70
2017-12-16T00:04:27.839Z,28.37
2017-12-16T00:06:55.331Z,28.30
2017-12-16T00:09:22.788Z,26.80
2017-12-16T00:11:50.270Z,27.50
2017-12-16T00:14:17.740Z,33.43
2017-12-16T00:16:45.230Z,37.77
2017-12-16T00:19:12.698Z,34.90
2017-12-16T00:21:40.938Z,40.83
2017-12-16T00:24:08.426Z,41.60
2017-12-16T00:26:36.652Z,39.67
2017-12-16T00:29:04.123Z,36.97
2017-12-16T00:31:31.601Z,31.67
2017-12-16T00:33:59.062Z,38.90
2017-12-16T00:36:26.543Z,37.97
2017-12-16T00:38:54.011Z,39.70
2017-12-16T00:41:21.483Z,34.97
2017-12-16T00:43:49.008Z,39.07
2017-12-16T00:46:16.442Z,32.73
2017-12-16T00:48:43.927Z,32.50
2017-12-16T00:51:11.381Z,28.80
2017-12-16T00:53:38.867Z,31.07
2017-12-16T00:56:06.351Z,28.60
2017-12-16T00:58:33.834Z,30.93
2017-12-16T01:01:02.067Z,35.30
2017-12-16T01:03:29.554Z,33.90
2017-12-16T01:05:57.017Z,27.23
2017-12-16T01:08:24.491Z,31.30
2017-12-16T01:10:52.719Z,34.30
2017-12-16T01:13:20.186Z,26.53
2017-12-16T01:15:47.664Z,36.97
2017-12-16T01:18:15.893Z,32.20
2017-12-16T01:20:43.399Z,33.53
2017-12-16T01:23:11.643Z,32.47
2017-12-16T01:25:39.129Z,27.40
2017-12-16T01:28:07.215Z,35.77
2017-12-16T01:30:35.510Z,31.57
2017-12-16T01:33:02.959Z,30.47
2017-12-16T01:35:42.515Z,30.37
2017-12-16T01:41:10.458Z,38.17
2017-12-16T01:43:38.698Z,36.33
2017-12-16T01:46:06.166Z,35.27
2017-12-16T01:48:33.643Z,40.63
2017-12-16T01:51:01.878Z,33.57
2017-12-16T01:53:29.355Z,44.37
2017-12-16T01:55:56.831Z,32.27
2017-12-16T01:58:24.323Z,36.57
2017-12-16T02:00:51.806Z,32.97
2017-12-16T02:03:19.271Z,33.40
2017-12-16T02:05:46.752Z,37.90
2017-12-16T02:08:14.242Z,32.20
2017-12-16T02:10:42.475Z,35.43
2017-12-16T02:13:10.046Z,33.10
2017-12-16T02:15:37.526Z,38.50
2017-12-16T02:18:05.771Z,43.70
2017-12-16T02:20:33.328Z,42.00
2017-12-16T02:23:00.808Z,40.40
2017-12-16T02:25:29.038Z,40.73
2017-12-16T02:27:56.515Z,37.90
2017-12-16T02:30:23.987Z,48.03
2017-12-16T02:32:51.472Z,43.03
2017-12-16T02:35:18.939Z,47.90
2017-12-16T02:37:46.403Z,47.87
2017-12-16T02:40:13.887Z,48.03
2017-12-16T02:42:41.356Z,46.30
2017-12-16T02:45:08.839Z,48.20
2017-12-16T02:47:37.078Z,49.27
2017-12-16T02:50:04.567Z,49.97
2017-12-16T02:52:32.790Z,68.93
2017-12-16T02:55:00.272Z,72.37
2017-12-16T02:57:27.737Z,68.60
2017-12-16T02:59:55.974Z,72.77
2017-12-16T03:02:23.456Z,72.43
2017-12-16T03:04:50.911Z,75.40
2017-12-16T03:07:18.370Z,79.40
2017-12-16T03:09:45.855Z,83.57
2017-12-16T03:12:14.076Z,79.00
2017-12-16T03:14:41.555Z,103.70
2017-12-16T03:17:09.028Z,92.40
2017-12-16T03:19:36.496Z,104.20
2017-12-16T03:22:04.738Z,95.07
2017-12-16T03:24:32.202Z,98.50
2017-12-16T03:26:59.676Z,99.03
2017-12-16T03:29:36.010Z,100.03
2017-12-16T03:32:04.295Z,106.43
2017-12-16T03:34:31.776Z,98.40
2017-12-16T03:36:59.235Z,103.87
2017-12-16T03:39:27.486Z,95.23
2017-12-16T03:41:54.943Z,96.27
2017-12-16T03:44:22.431Z,87.23
2017-12-16T03:46:50.662Z,90.63
2017-12-16T03:49:18.151Z,94.43
2017-12-16T03:51:46.391Z,78.20
2017-12-16T03:54:13.855Z,70.37
2017-12-16T03:56:41.315Z,71.57
2017-12-16T03:59:08.798Z,80.37
2017-12-16T04:01:37.028Z,78.37
2017-12-16T04:04:04.498Z,76.60
2017-12-16T04:06:32.071Z,72.17
2017-12-16T04:08:59.546Z,70.57
2017-12-16T04:11:27.780Z,84.37
2017-12-16T04:13:55.263Z,75.73
2017-12-16T04:16:22.761Z,80.97
2017-12-16T04:18:50.237Z,64.83
2017-12-16T04:21:17.703Z,70.83
2017-12-16T04:23:45.168Z,77.90
2017-12-16T04:26:12.649Z,72.60
2017-12-16T04:28:40.110Z,82.67
2017-12-16T04:31:07.670Z,71.77
2017-12-16T04:33:35.898Z,67.77
2017-12-16T04:36:03.390Z,66.40
2017-12-16T04:38:30.853Z,64.97
2017-12-16T04:40:58.314Z,71.00
2017-12-16T04:43:26.559Z,71.17
2017-12-16T04:45:54.045Z,70.30
2017-12-16T04:48:21.527Z,66.70
2017-12-16T04:50:49.023Z,60.40
2017-12-16T04:53:16.490Z,63.73
2017-12-16T04:55:43.970Z,65.73
2017-12-16T04:58:12.762Z,62.93
2017-12-16T05:00:41.010Z,63.70
2017-12-16T05:03:08.482Z,60.23
2017-12-16T05:05:35.963Z,73.00
2017-12-16T05:08:03.426Z,63.10
2017-12-16T05:10:30.913Z,60.27
2017-12-16T05:12:58.390Z,61.53
2017-12-16T05:15:25.859Z,58.10
2017-12-16T05:17:53.339Z,62.93
2017-12-16T05:20:21.588Z,62.70
2017-12-16T05:22:49.108Z,54.90
2017-12-16T05:25:16.573Z,60.60
2017-12-16T05:27:44.071Z,62.07
2017-12-16T05:30:11.543Z,61.93
2017-12-16T05:32:39.787Z,63.93
2017-12-16T05:35:07.258Z,76.03
2017-12-16T05:37:34.729Z,75.47
2017-12-16T05:40:02.978Z,77.47
2017-12-16T05:42:30.446Z,77.03
2017-12-16T05:44:57.926Z,78.47
2017-12-16T05:47:26.172Z,97.87
2017-12-16T05:49:53.626Z,96.57
2017-12-16T05:52:21.110Z,102.03
2017-12-16T05:54:49.362Z,94.17
2017-12-16T05:57:16.823Z,89.23
2017-12-16T05:59:44.279Z,97.30
2017-12-16T06:02:11.759Z,100.57
2017-12-16T06:04:39.224Z,103.43
2017-12-16T06:07:06.715Z,102.33
2017-12-16T06:09:34.195Z,96.20
2017-12-16T06:12:01.674Z,93.20
2017-12-16T06:14:29.895Z,91.47
2017-12-16T06:16:57.367Z,88.53
2017-12-16T06:19:24.831Z,91.80
2017-12-16T06:21:52.318Z,93.37
2017-12-16T06:24:20.558Z,84.10
2017-12-16T06:26:48.025Z,84.53
2017-12-16T06:29:16.286Z,90.60
2017-12-16T06:31:43.755Z,89.87
2017-12-16T06:34:11.250Z,96.27
2017-12-16T06:36:39.500Z,113.53
2017-12-16T06:39:06.963Z,107.60
2017-12-16T06:41:35.226Z,97.67
2017-12-16T06:44:02.690Z,102.63
2017-12-16T06:46:30.942Z,101.60
2017-12-16T06:48:58.428Z,95.17
2017-12-16T06:51:26.698Z,104.63
2017-12-16T06:53:54.968Z,94.70
2017-12-16T06:56:22.434Z,98.47
2017-12-16T06:58:50.687Z,85.40
2017-12-16T07:01:18.151Z,94.23
2017-12-16T07:03:45.641Z,98.67
2017-12-16T07:06:13.107Z,107.10
2017-12-16T07:08:40.583Z,96.00
2017-12-16T07:11:08.070Z,95.23
2017-12-16T07:13:35.555Z,87.47
2017-12-16T07:16:03.828Z,82.93
2017-12-16T07:18:32.080Z,96.97
2017-12-16T07:20:59.553Z,85.13
2017-12-16T07:23:27.050Z,85.47
2017-12-16T07:25:54.525Z,96.70
2017-12-16T07:28:22.008Z,83.43
2017-12-16T07:30:49.487Z,81.53
2017-12-16T07:33:17.747Z,74.83
2017-12-16T07:35:46.115Z,79.73
2017-12-16T07:38:16.590Z,89.23
2017-12-16T07:40:45.278Z,76.17
2017-12-16T07:43:12.867Z,70.00
2017-12-16T07:45:40.347Z,67.20
2017-12-16T07:48:07.835Z,73.40
2017-12-16T07:50:36.058Z,63.40
2017-12-16T07:53:03.538Z,66.67
2017-12-16T07:55:31.027Z,73.80
2017-12-16T07:57:58.482Z,70.33
2017-12-16T08:00:26.559Z,60.77
2017-12-16T08:02:54.155Z,62.70
2017-12-16T08:05:21.642Z,54.67
2017-12-16T08:07:49.119Z,53.23
2017-12-16T08:10:17.335Z,52.87
2017-12-16T08:12:44.814Z,50.13
2017-12-16T08:15:12.291Z,65.40
2017-12-16T08:17:40.527Z,40.20
2017-12-16T08:20:07.994Z,40.90
2017-12-16T08:22:35.483Z,46.17
2017-12-16T08:25:03.740Z,47.53
2017-12-16T08:27:31.203Z,32.50
2017-12-16T08:29:58.676Z,32.10
2017-12-16T08:32:27.231Z,32.70
2017-12-16T08:34:54.698Z,25.80
2017-12-16T08:37:22.188Z,32.10
2017-12-16T08:39:49.662Z,32.60
2017-12-16T08:42:17.150Z,31.13
2017-12-16T08:44:44.623Z,28.90
2017-12-16T08:47:12.115Z,27.30
2017-12-16T08:49:39.602Z,28.07
2017-12-16T08:52:07.073Z,22.97
2017-12-16T08:54:34.554Z,30.60
2017-12-16T08:57:03.538Z,20.40
2017-12-16T08:59:31.006Z,24.57
2017-12-16T09:01:58.470Z,22.67
2017-12-16T09:04:25.955Z,21.97
2017-12-16T09:06:53.417Z,26.00
2017-12-16T09:09:20.878Z,23.23
2017-12-16T09:11:48.362Z,24.50
2017-12-16T09:14:15.829Z,25.40
2017-12-16T09:16:43.327Z,21.37
2017-12-16T09:19:10.791Z,24.50
2017-12-16T09:21:38.245Z,24.27
2017-12-16T09:24:05.742Z,23.47
2017-12-16T09:26:33.222Z,21.20
2017-12-16T09:29:02.214Z,24.33
2017-12-16T09:31:31.179Z,23.33
2017-12-16T09:33:58.654Z,17.00
2017-12-16T09:36:26.111Z,17.80
2017-12-16T09:38:53.594Z,18.23
2017-12-16T09:41:21.042Z,17.47
2017-12-16T09:43:49.286Z,18.40
2017-12-16T09:46:16.766Z,19.23
2017-12-16T09:48:44.992Z,16.07
2017-12-16T09:51:12.467Z,16.73
2017-12-16T09:53:39.930Z,13.43
2017-12-16T09:56:07.406Z,19.23
2017-12-16T09:58:36.386Z,22.40
2017-12-16T10:01:03.859Z,16.57
2017-12-16T10:03:32.095Z,21.60
2017-12-16T10:05:59.570Z,18.90
2017-12-16T10:08:27.051Z,18.63
2017-12-16T10:10:56.028Z,23.30
2017-12-16T10:13:23.495Z,12.37
2017-12-16T10:15:52.475Z,15.33
2017-12-16T10:18:19.926Z,16.50
2017-12-16T10:20:47.415Z,11.70
2017-12-16T10:23:15.654Z,15.93
2017-12-16T10:25:43.127Z,19.80
2017-12-16T10:28:10.607Z,14.03
2017-12-16T10:30:38.826Z,12.40
2017-12-16T10:33:06.312Z,12.70
2017-12-16T10:35:33.765Z,17.07
2017-12-16T10:38:01.238Z,15.83
2017-12-16T10:40:28.707Z,15.77
2017-12-16T10:42:56.934Z,17.47
2017-12-16T10:45:24.414Z,14.13
2017-12-16T10:47:51.902Z,13.37
2017-12-16T10:50:20.130Z,12.73
2017-12-16T10:52:47.618Z,12.40
2017-12-16T10:55:15.851Z,16.33
2017-12-16T10:57:43.334Z,15.50
2017-12-16T11:00:10.815Z,13.53
2017-12-16T11:02:39.042Z,14.97
2017-12-16T11:05:06.580Z,16.80
2017-12-16T11:07:34.039Z,15.33
2017-12-16T11:10:01.591Z,14.27
2017-12-16T11:12:29.055Z,21.50
2017-12-16T11:14:56.523Z,17.13
2017-12-16T11:17:23.975Z,14.57
2017-12-16T11:19:51.459Z,20.13
2017-12-16T11:22:18.914Z,19.03
2017-12-16T11:24:46.391Z,14.10
2017-12-16T11:27:14.649Z,16.30
2017-12-16T11:29:43.630Z,20.00
2017-12-16T11:32:11.094Z,13.10
2017-12-16T11:34:38.584Z,17.70
2017-12-16T11:37:06.803Z,23.83
2017-12-16T11:39:34.264Z,14.87
2017-12-16T11:42:01.746Z,16.37
2017-12-16T11:44:29.211Z,8.20
2017-12-16T11:46:56.686Z,12.20
2017-12-16T11:49:24.906Z,11.67
2017-12-16T11:51:52.370Z,13.30
2017-12-16T11:54:19.853Z,8.37
2017-12-16T11:56:47.319Z,15.77
2017-12-16T11:59:15.551Z,12.37
2017-12-16T12:01:43.035Z,12.97
2017-12-16T12:04:11.274Z,15.07
2017-12-16T12:06:38.742Z,14.03
2017-12-16T12:09:06.211Z,9.80
2017-12-16T12:11:33.663Z,9.20
2017-12-16T12:14:01.138Z,9.63
2017-12-16T12:16:28.602Z,6.87
2017-12-16T12:18:56.066Z,13.50
2017-12-16T12:21:23.538Z,11.90
2017-12-16T12:23:51.776Z,12.33
2017-12-16T12:26:19.267Z,10.90
2017-12-16T12:28:47.499Z,11.47
2017-12-16T12:31:16.474Z,9.67
2017-12-16T12:33:44.771Z,11.00
2017-12-16T12:36:12.238Z,9.97
2017-12-16T12:38:39.722Z,21.57
2017-12-16T12:41:07.947Z,9.93
2017-12-16T12:43:35.410Z,11.70
2017-12-16T12:46:02.913Z,11.70
2017-12-16T12:48:31.190Z,10.17
2017-12-16T12:50:58.667Z,12.40
2017-12-16T12:53:26.128Z,14.20
2017-12-16T12:55:53.748Z,8.87
2017-12-16T12:58:21.985Z,6.13
2017-12-16T13:00:49.474Z,7.93
2017-12-16T13:03:17.694Z,8.73
2017-12-16T13:05:45.148Z,9.23
2017-12-16T13:08:12.624Z,7.33
2017-12-16T13:10:40.106Z,11.30
2017-12-16T13:13:08.335Z,7.53
2017-12-16T13:15:35.792Z,7.47
2017-12-16T13:18:03.270Z,12.23
2017-12-16T13:20:30.750Z,7.00
2017-12-16T13:22:58.223Z,7.03
2017-12-16T13:25:26.458Z,14.00
2017-12-16T13:27:54.012Z,12.33
2017-12-16T13:30:21.462Z,10.57
2017-12-16T13:32:49.671Z,18.93
2017-12-16T13:35:17.134Z,7.23
2017-12-16T13:37:44.590Z,5.87
2017-12-16T13:40:12.823Z,9.17
2017-12-16T13:42:40.309Z,9.33
2017-12-16T13:45:07.811Z,7.30
2017-12-16T13:47:35.269Z,12.63
2017-12-16T13:50:02.727Z,9.30
2017-12-16T13:52:30.186Z,12.07
2017-12-16T13:54:57.663Z,17.73
2017-12-16T13:57:25.114Z,7.50
2017-12-16T13:59:52.605Z,7.53
2017-12-16T14:02:20.076Z,13.23
2017-12-16T14:04:47.572Z,6.07
2017-12-16T14:07:15.035Z,11.13
2017-12-16T14:09:42.642Z,10.27
2017-12-16T14:12:10.866Z,15.40
2017-12-16T14:14:38.329Z,7.00
2017-12-16T14:17:05.799Z,8.53
2017-12-16T14:19:33.274Z,10.53
2017-12-16T14:22:00.758Z,8.63
2017-12-16T14:24:29.021Z,9.73
2017-12-16T14:26:57.246Z,16.33
2017-12-16T14:29:24.741Z,14.83
2017-12-16T14:31:52.201Z,12.30
2017-12-16T14:34:19.689Z,12.40
2017-12-16T14:36:47.932Z,20.80
2017-12-16T14:39:15.454Z,9.10
2017-12-16T14:41:42.915Z,7.47
2017-12-16T14:44:10.455Z,11.27
2017-12-16T14:46:37.910Z,7.13
2017-12-16T14:49:05.390Z,14.23
2017-12-16T14:51:32.854Z,14.60
2017-12-16T14:54:00.338Z,10.83
2017-12-16T14:56:28.578Z,8.07
2017-12-16T14:58:56.031Z,10.03
2017-12-16T15:01:23.537Z,17.60
2017-12-16T15:03:51.764Z,15.53
2017-12-16T15:06:19.222Z,11.13
2017-12-16T15:08:46.727Z,8.13
2017-12-16T15:11:14.956Z,7.23
2017-12-16T15:13:42.441Z,8.80
2017-12-16T15:16:10.679Z,13.37
2017-12-16T15:18:38.147Z,6.07
2017-12-16T15:21:05.863Z,4.60
2017-12-16T15:23:34.304Z,6.57
2017-12-16T15:26:01.831Z,10.33
2017-12-16T15:28:29.324Z,4.13
2017-12-16T15:30:56.828Z,14.93
2017-12-16T15:33:24.304Z,7.60
2017-12-16T15:35:51.807Z,6.97
2017-12-16T15:38:22.660Z,11.97
2017-12-16T15:40:51.179Z,11.67
2017-12-16T15:43:18.982Z,11.70
2017-12-16T15:45:46.436Z,13.47
2017-12-16T15:48:14.690Z,13.03
2017-12-16T15:50:42.158Z,9.70
2017-12-16T15:53:09.649Z,5.37
2017-12-16T15:55:39.411Z,11.03
2017-12-16T15:58:07.968Z,9.63
2017-12-16T16:00:35.474Z,4.33
2017-12-16T16:03:02.982Z,7.23
2017-12-16T16:05:31.154Z,5.90
2017-12-16T16:07:58.621Z,10.43
2017-12-16T16:10:26.131Z,12.83
2017-12-16T16:12:54.370Z,6.57
2017-12-16T16:15:21.867Z,7.10
2017-12-16T16:17:50.107Z,5.33
2017-12-16T16:20:17.564Z,7.60
2017-12-16T16:22:45.016Z,5.47
2017-12-16T16:25:12.500Z,6.73
2017-12-16T16:27:40.749Z,15.70
2017-12-16T16:30:08.273Z,19.47
2017-12-16T16:32:35.732Z,8.47
2017-12-16T16:35:03.443Z,12.30
2017-12-16T16:37:31.072Z,11.03
2017-12-16T16:39:58.544Z,20.93
2017-12-16T16:42:26.168Z,8.73
2017-12-16T16:44:53.638Z,10.30
2017-12-16T16:47:21.379Z,8.43
2017-12-16T16:49:50.116Z,7.23
2017-12-16T16:52:17.567Z,7.20
2017-12-16T16:54:45.036Z,7.83
2017-12-16T16:57:12.748Z,10.60
2017-12-16T16:59:40.955Z,8.63
2017-12-16T17:02:08.433Z,10.03
2017-12-16T17:04:35.921Z,10.97
2017-12-16T17:07:03.702Z,14.03
2017-12-16T17:09:31.201Z,14.90
2017-12-16T17:11:59.428Z,10.77
2017-12-16T17:14:26.949Z,20.50
2017-12-16T17:16:54.514Z,12.83
2017-12-16T17:19:22.742Z,14.83
2017-12-16T17:21:50.328Z,10.80
2017-12-16T17:24:18.048Z,12.03
2017-12-16T17:26:45.749Z,16.77
2017-12-16T17:29:17.446Z,16.17
2017-12-16T17:31:45.070Z,10.40
2017-12-16T17:34:12.536Z,11.80
2017-12-16T17:36:40.786Z,10.97
2017-12-16T17:39:08.280Z,13.13
2017-12-16T17:41:36.528Z,17.17
2017-12-16T17:44:04.018Z,16.17
2017-12-16T17:46:32.251Z,17.13
2017-12-16T17:48:59.735Z,22.73
2017-12-16T17:51:27.220Z,13.63
2017-12-16T17:53:54.691Z,16.20
2017-12-16T17:56:22.175Z,18.50
2017-12-16T17:58:49.663Z,20.70
2017-12-16T18:01:17.911Z,14.53
2017-12-16T18:03:45.379Z,12.07
2017-12-16T18:06:12.900Z,14.33
2017-12-16T18:08:40.378Z,16.23
2017-12-16T18:11:07.879Z,13.83
2017-12-16T18:13:36.103Z,15.20
2017-12-16T18:16:03.572Z,22.60
2017-12-16T18:18:31.039Z,14.00
2017-12-16T18:20:58.511Z,13.23
2017-12-16T18:23:26.757Z,16.90
2017-12-16T18:25:54.215Z,19.17
2017-12-16T18:28:21.694Z,15.20
2017-12-16T18:30:49.947Z,12.27
2017-12-16T18:33:17.419Z,13.13
2017-12-16T18:35:44.871Z,16.30
2017-12-16T18:38:14.095Z,9.70
2017-12-16T18:40:42.336Z,15.30
2017-12-16T18:43:10.163Z,14.70
2017-12-16T18:45:37.643Z,14.47
2017-12-16T18:48:05.111Z,12.67
2017-12-16T18:50:32.602Z,11.17
2017-12-16T18:53:00.843Z,10.20
2017-12-16T18:55:28.330Z,8.60
2017-12-16T18:57:56.555Z,6.73
2017-12-16T19:00:24.030Z,8.10
2017-12-16T19:02:52.414Z,7.70
2017-12-16T19:05:21.434Z,10.70
2017-12-16T19:07:49.656Z,12.47
2017-12-16T19:10:17.183Z,5.43
2017-12-16T19:12:44.650Z,6.93
2017-12-16T19:15:12.132Z,7.10
2017-12-16T19:17:39.607Z,9.30
2017-12-16T19:20:07.861Z,7.53
2017-12-16T19:22:35.346Z,15.03
2017-12-16T19:25:02.815Z,8.73
2017-12-16T19:27:30.328Z,7.33
2017-12-16T19:29:57.793Z,12.13
2017-12-16T19:32:25.610Z,11.87
2017-12-16T19:34:54.160Z,14.57
2017-12-16T19:37:21.898Z,13.37
2017-12-16T19:39:49.439Z,8.03
2017-12-16T19:42:17.017Z,9.23
2017-12-16T19:44:45.170Z,13.13
2017-12-16T19:47:12.771Z,12.73
2017-12-16T19:49:42.441Z,13.80
2017-12-16T19:52:09.931Z,14.30
2017-12-16T19:54:37.419Z,19.27
2017-12-16T19:57:05.762Z,17.70
2017-12-16T19:59:33.620Z,15.03
2017-12-16T20:02:01.150Z,13.90
2017-12-16T20:04:28.633Z,14.17
2017-12-16T20:06:56.114Z,18.20
2017-12-16T20:09:23.570Z,26.97
2017-12-16T20:11:51.064Z,20.33
2017-12-16T20:14:18.639Z,18.43
2017-12-16T20:16:46.525Z,16.03
2017-12-16T20:19:15.144Z,22.87
2017-12-16T20:21:42.884Z,15.50
2017-12-16T20:24:10.567Z,14.80
2017-12-16T20:26:38.823Z,19.63
2017-12-16T20:29:06.612Z,19.80
2017-12-16T20:31:35.044Z,21.70
2017-12-16T20:34:02.531Z,17.33
2017-12-16T20:36:30.012Z,20.47
2017-12-16T20:38:58.824Z,18.57
2017-12-16T20:41:26.299Z,21.90
2017-12-16T20:43:53.768Z,22.40
2017-12-16T20:46:21.278Z,19.60
2017-12-16T20:48:48.771Z,26.10
2017-12-16T20:51:16.255Z,21.60
2017-12-16T20:53:43.726Z,22.07
2017-12-16T20:56:11.979Z,17.87
2017-12-16T20:58:39.794Z,21.63
2017-12-16T21:01:07.283Z,17.83
2017-12-16T21:03:34.747Z,21.70
2017-12-16T21:06:02.244Z,18.30
2017-12-16T21:08:30.506Z,24.37
2017-12-16T21:10:58.274Z,27.10
2017-12-16T21:13:25.882Z,22.00
2017-12-16T21:15:53.354Z,18.60
2017-12-16T21:18:20.807Z,16.67
2017-12-16T21:20:48.283Z,23.30
2017-12-16T21:23:15.870Z,17.17
2017-12-16T21:25:44.128Z,17.23
2017-12-16T21:28:12.101Z,21.50
2017-12-16T21:30:39.588Z,22.73
2017-12-16T21:33:07.121Z,21.07
2017-12-16T21:35:35.374Z,19.13
2017-12-16T21:38:04.353Z,18.90
2017-12-16T21:40:31.822Z,25.13
2017-12-16T21:42:59.462Z,20.13
2017-12-16T21:45:27.155Z,25.67
2017-12-16T21:47:55.392Z,18.67
2017-12-16T21:50:22.882Z,21.93
2017-12-16T21:52:51.119Z,17.87
2017-12-16T21:55:18.588Z,25.37
2017-12-16T21:57:46.087Z,21.03
2017-12-16T22:00:14.336Z,24.00
2017-12-16T22:02:41.814Z,28.63
2017-12-16T22:05:09.391Z,25.00
2017-12-16T22:07:37.644Z,32.93
2017-12-16T22:10:05.117Z,30.83
2017-12-16T22:12:33.342Z,29.33
2017-12-16T22:15:00.839Z,27.20
2017-12-16T22:17:28.307Z,36.13
2017-12-16T22:19:56.546Z,28.07
2017-12-16T22:22:24.017Z,24.40
2017-12-16T22:24:51.491Z,29.30
2017-12-16T22:27:19.749Z,28.40
2017-12-16T22:29:47.232Z,30.67
2017-12-16T22:32:15.478Z,35.93
2017-12-16T22:34:43.029Z,29.57
2017-12-16T22:37:10.495Z,30.10
2017-12-16T22:39:37.971Z,28.23
2017-12-16T22:42:05.456Z,27.40
2017-12-16T22:44:32.936Z,29.00
2017-12-16T22:47:00.423Z,32.33
2017-12-16T22:49:27.918Z,25.83
2017-12-16T22:51:55.394Z,25.30
2017-12-16T22:54:22.883Z,25.10
2017-12-16T22:56:50.374Z,24.60
2017-12-16T22:59:18.614Z,24.10
2017-12-16T23:01:46.115Z,26.30
2017-12-16T23:04:13.587Z,23.73
2017-12-16T23:06:41.412Z,25.27
2017-12-16T23:09:08.908Z,26.23
2017-12-16T23:11:36.453Z,30.30
2017-12-16T23:14:03.951Z,24.17
2017-12-16T23:16:31.823Z,37.93
2017-12-16T23:18:59.875Z,21.43
2017-12-16T23:21:27.628Z,23.43
2017-12-16T23:23:55.092Z,24.63
2017-12-16T23:26:22.574Z,19.90
2017-12-16T23:28:50.050Z,19.60
2017-12-16T23:31:17.774Z,23.40
2017-12-16T23:33:45.498Z,25.30
2017-12-16T23:36:13.808Z,21.77
2017-12-16T23:38:41.338Z,24.37
2017-12-16T23:41:08.814Z,22.90
2017-12-16T23:43:36.305Z,24.37
2017-12-16T23:46:03.771Z,25.33
2017-12-16T23:48:31.252Z,19.90
2017-12-16T23:50:59.619Z,26.90
2017-12-16T23:53:27.860Z,28.73
2017-12-16T23:55:55.340Z,24.10
2017-12-16T23:58:24.340Z,26.83
